createdAt,value
2019-02-19T00:00:22.455Z,10.80
2019-02-19T00:02:50.935Z,12.47
2019-02-19T00:05:18.614Z,10.57
2019-02-19T00:07:46.175Z,10.27
2019-02-19T00:10:13.739Z,8.97
2019-02-19T00:12:41.295Z,8.73
2019-02-19T00:15:08.856Z,11.97
2019-02-19T00:17:37.351Z,11.07
2019-02-19T00:20:04.931Z,28.50
2019-02-19T00:22:32.495Z,12.20
2019-02-19T00:25:00.054Z,13.10
2019-02-19T00:27:27.656Z,6.50
2019-02-19T00:29:55.222Z,12.90
2019-02-19T00:32:22.791Z,11.23
2019-02-19T00:34:50.352Z,10.07
2019-02-19T00:37:19.836Z,10.50
2019-02-19T00:39:47.392Z,16.13
2019-02-19T00:42:14.946Z,9.73
2019-02-19T00:44:43.271Z,8.83
2019-02-19T00:47:10.830Z,10.30
2019-02-19T00:49:38.391Z,8.00
2019-02-19T00:52:05.953Z,12.13
2019-02-19T00:54:33.511Z,11.00
2019-02-19T00:57:01.067Z,9.77
2019-02-19T00:59:30.356Z,10.40
2019-02-19T01:01:57.924Z,14.73
2019-02-19T01:04:25.480Z,6.90
2019-02-19T01:06:53.049Z,12.60
2019-02-19T01:09:21.366Z,8.30
2019-02-19T01:11:48.930Z,13.00
2019-02-19T01:14:16.490Z,8.80
2019-02-19T01:16:44.059Z,10.47
2019-02-19T01:19:11.614Z,7.93
2019-02-19T01:21:39.171Z,7.70
2019-02-19T01:24:06.722Z,9.47
2019-02-19T01:26:34.289Z,10.17
2019-02-19T01:29:01.845Z,5.70
2019-02-19T01:31:29.403Z,8.40
2019-02-19T01:33:56.955Z,7.63
2019-02-19T01:36:24.511Z,8.03
2019-02-19T01:38:52.062Z,10.87
2019-02-19T01:41:19.617Z,6.90
2019-02-19T01:43:47.171Z,7.77
2019-02-19T01:46:14.726Z,12.70
2019-02-19T01:48:42.348Z,9.60
2019-02-19T01:51:09.903Z,6.70
2019-02-19T01:53:37.464Z,9.83
2019-02-19T01:56:05.028Z,9.80
2019-02-19T01:58:34.531Z,11.53
2019-02-19T02:01:02.097Z,8.43
2019-02-19T02:03:31.583Z,9.97
2019-02-19T02:05:59.150Z,10.50
2019-02-19T02:08:26.709Z,13.50
2019-02-19T02:10:54.267Z,9.80
2019-02-19T02:13:21.823Z,12.83
2019-02-19T02:15:49.383Z,12.23
2019-02-19T02:18:16.943Z,12.33
2019-02-19T02:20:44.503Z,10.37
2019-02-19T02:23:12.067Z,8.97
2019-02-19T02:25:39.629Z,6.70
2019-02-19T02:28:07.191Z,19.20
2019-02-19T02:30:36.663Z,8.63
2019-02-19T02:33:04.229Z,25.30
2019-02-19T02:35:32.700Z,9.00
2019-02-19T02:38:01.178Z,9.07
2019-02-19T02:40:28.744Z,9.63
2019-02-19T02:42:58.239Z,9.77
2019-02-19T02:45:25.817Z,13.50
2019-02-19T02:47:53.397Z,7.90
2019-02-19T02:50:20.974Z,11.07
2019-02-19T02:52:49.304Z,6.90
2019-02-19T02:55:16.869Z,10.33
2019-02-19T02:57:44.433Z,11.07
2019-02-19T03:00:12.631Z,16.45
2019-02-19T03:02:40.201Z,14.70
2019-02-19T03:05:07.770Z,8.87
2019-02-19T03:07:36.095Z,15.43
2019-02-19T03:10:03.669Z,13.67
2019-02-19T03:12:31.236Z,10.30
2019-02-19T03:14:58.803Z,31.77
2019-02-19T03:17:26.369Z,13.93
2019-02-19T03:19:53.934Z,8.60
2019-02-19T03:22:21.518Z,26.07
2019-02-19T03:24:49.204Z,34.23
2019-02-19T03:27:16.778Z,14.33
2019-02-19T03:29:44.344Z,13.57
2019-02-19T03:32:11.916Z,10.60
2019-02-19T03:34:40.251Z,14.13
2019-02-19T03:37:07.821Z,16.33
2019-02-19T03:39:35.469Z,13.13
2019-02-19T03:42:03.037Z,13.13
2019-02-19T03:44:30.590Z,9.30
2019-02-19T03:46:58.160Z,12.93
2019-02-19T03:49:27.654Z,9.60
2019-02-19T03:51:55.233Z,10.20
2019-02-19T03:54:23.734Z,13.60
2019-02-19T03:56:51.305Z,8.17
2019-02-19T03:59:18.868Z,21.10
2019-02-19T04:01:46.441Z,10.27
2019-02-19T04:04:14.000Z,11.83
2019-02-19T04:06:41.564Z,10.13
2019-02-19T04:09:09.124Z,14.43
2019-02-19T04:11:36.692Z,11.60
2019-02-19T04:14:05.199Z,10.67
2019-02-19T04:16:32.778Z,17.90
2019-02-19T04:19:00.347Z,15.00
2019-02-19T04:21:28.841Z,12.10
2019-02-19T04:23:56.409Z,10.30
2019-02-19T04:26:23.985Z,10.10
2019-02-19T04:28:51.554Z,15.07
2019-02-19T04:31:21.050Z,14.70
2019-02-19T04:33:48.617Z,14.97
2019-02-19T04:36:16.184Z,14.00
2019-02-19T04:38:43.746Z,9.90
2019-02-19T04:41:13.246Z,13.50
2019-02-19T04:43:40.816Z,13.43
2019-02-19T04:46:08.384Z,8.47
2019-02-19T04:48:35.945Z,9.03
2019-02-19T04:51:03.634Z,13.13
2019-02-19T04:53:31.211Z,13.83
2019-02-19T04:55:58.779Z,13.33
2019-02-19T04:58:27.108Z,11.37
2019-02-19T05:00:54.688Z,11.37
2019-02-19T05:03:22.265Z,11.23
2019-02-19T05:05:49.848Z,11.60
2019-02-19T05:08:17.421Z,11.57
2019-02-19T05:10:47.664Z,10.95
2019-02-19T05:13:17.158Z,11.47
2019-02-19T05:15:44.735Z,11.37
2019-02-19T05:18:12.306Z,16.53
2019-02-19T05:20:39.868Z,13.60
2019-02-19T05:23:07.564Z,10.83
2019-02-19T05:25:35.987Z,13.57
2019-02-19T05:28:03.550Z,18.70
2019-02-19T05:30:31.208Z,11.80
2019-02-19T05:32:58.783Z,10.00
2019-02-19T05:35:26.348Z,12.70
2019-02-19T05:37:53.912Z,11.23
2019-02-19T05:40:21.476Z,9.17
2019-02-19T05:42:49.040Z,12.80
2019-02-19T05:45:18.523Z,7.10
2019-02-19T05:47:46.088Z,13.93
2019-02-19T05:50:13.647Z,10.90
2019-02-19T05:52:42.181Z,11.73
2019-02-19T05:55:09.753Z,11.17
2019-02-19T05:57:37.320Z,11.10
2019-02-19T06:00:05.272Z,15.37
2019-02-19T06:02:32.835Z,19.43
2019-02-19T06:05:00.409Z,16.40
2019-02-19T06:07:27.980Z,15.90
2019-02-19T06:09:55.546Z,10.13
2019-02-19T06:12:23.129Z,14.10
2019-02-19T06:14:50.697Z,11.07
2019-02-19T06:17:18.266Z,13.17
2019-02-19T06:19:45.829Z,11.57
2019-02-19T06:22:13.396Z,10.47
2019-02-19T06:24:40.956Z,15.97
2019-02-19T06:27:08.541Z,13.17
2019-02-19T06:29:36.109Z,10.33
2019-02-19T06:32:03.676Z,8.67
2019-02-19T06:34:31.248Z,13.50
2019-02-19T06:36:58.815Z,13.50
2019-02-19T06:39:26.390Z,13.67
2019-02-19T06:41:54.160Z,15.43
2019-02-19T06:44:21.715Z,7.47
2019-02-19T06:46:49.287Z,21.83
2019-02-19T06:49:16.852Z,13.67
2019-02-19T06:51:44.440Z,8.10
2019-02-19T06:54:12.008Z,15.93
2019-02-19T06:56:39.579Z,10.63
2019-02-19T06:59:07.141Z,15.37
2019-02-19T07:01:35.684Z,58.97
2019-02-19T07:04:03.383Z,10.53
2019-02-19T07:06:30.953Z,11.20
2019-02-19T07:08:58.517Z,24.00
2019-02-19T07:11:26.083Z,16.20
2019-02-19T07:13:53.644Z,18.83
2019-02-19T07:16:21.213Z,14.60
2019-02-19T07:18:48.787Z,14.30
2019-02-19T07:21:16.375Z,15.67
2019-02-19T07:23:43.959Z,17.60
2019-02-19T07:26:11.528Z,21.00
2019-02-19T07:28:39.278Z,20.30
2019-02-19T07:31:06.846Z,15.87
2019-02-19T07:33:34.411Z,12.97
2019-02-19T07:36:02.960Z,12.70
2019-02-19T07:38:30.525Z,12.73
2019-02-19T07:40:58.088Z,25.27
2019-02-19T07:43:25.660Z,12.23
2019-02-19T07:45:54.167Z,16.30
2019-02-19T07:48:21.732Z,19.97
2019-02-19T07:50:49.300Z,21.70
2019-02-19T07:53:16.868Z,13.53
2019-02-19T07:55:45.752Z,13.17
2019-02-19T07:58:13.312Z,20.43
2019-02-19T08:00:42.629Z,21.13
2019-02-19T08:03:11.296Z,12.03
2019-02-19T08:05:39.636Z,15.40
2019-02-19T08:08:07.210Z,11.93
2019-02-19T08:10:36.716Z,9.30
2019-02-19T08:13:05.964Z,14.13
2019-02-19T08:15:33.530Z,12.87
2019-02-19T08:18:02.100Z,25.90
2019-02-19T08:20:29.660Z,14.50
2019-02-19T08:22:57.227Z,16.43
2019-02-19T08:25:24.788Z,14.30
2019-02-19T08:27:52.356Z,12.00
2019-02-19T08:30:19.921Z,15.10
2019-02-19T08:32:47.489Z,32.83
2019-02-19T08:35:15.061Z,15.73
2019-02-19T08:37:42.635Z,27.83
2019-02-19T08:40:10.216Z,11.90
2019-02-19T08:42:37.884Z,10.63
2019-02-19T08:45:05.451Z,15.70
2019-02-19T08:47:40.409Z,19.80
2019-02-19T08:50:00.665Z,17.80
2019-02-19T08:52:28.231Z,36.10
2019-02-19T08:54:55.799Z,12.07
2019-02-19T08:57:25.302Z,13.97
2019-02-19T08:59:52.890Z,18.90
2019-02-19T09:02:21.229Z,12.40
2019-02-19T09:04:48.800Z,12.67
2019-02-19T09:07:16.376Z,12.17
2019-02-19T09:09:43.940Z,12.73
2019-02-19T09:12:12.320Z,19.70
2019-02-19T09:14:40.656Z,13.03
2019-02-19T09:17:08.232Z,20.70
2019-02-19T09:19:35.811Z,23.33
2019-02-19T09:22:03.399Z,25.57
2019-02-19T09:24:30.970Z,20.03
2019-02-19T09:26:58.539Z,15.90
2019-02-19T09:29:26.112Z,16.47
2019-02-19T09:31:53.693Z,21.03
2019-02-19T09:34:22.189Z,22.70
2019-02-19T09:36:49.767Z,16.23
2019-02-19T09:39:17.431Z,15.23
2019-02-19T09:41:45.001Z,14.90
2019-02-19T09:44:12.568Z,11.97
2019-02-19T09:46:40.141Z,13.17
2019-02-19T09:49:07.707Z,27.67
2019-02-19T09:51:36.784Z,13.30
2019-02-19T09:54:04.356Z,21.23
2019-02-19T09:56:31.929Z,17.13
2019-02-19T09:59:01.416Z,22.20
2019-02-19T10:01:28.991Z,20.10
2019-02-19T10:03:56.568Z,24.80
2019-02-19T10:06:24.153Z,20.77
2019-02-19T10:08:51.721Z,14.93
2019-02-19T10:11:19.289Z,23.20
2019-02-19T10:13:46.861Z,17.17
2019-02-19T10:16:14.441Z,18.13
2019-02-19T10:18:42.772Z,20.43
2019-02-19T10:21:10.344Z,23.63
2019-02-19T10:23:38.676Z,19.10
2019-02-19T10:26:06.360Z,12.63
2019-02-19T10:28:33.947Z,14.77
2019-02-19T10:31:01.525Z,10.53
2019-02-19T10:33:30.038Z,16.70
2019-02-19T10:35:57.716Z,13.00
2019-02-19T10:38:25.286Z,17.83
2019-02-19T10:40:54.764Z,14.03
2019-02-19T10:43:23.563Z,12.87
2019-02-19T10:45:50.889Z,11.20
2019-02-19T10:48:19.317Z,15.70
2019-02-19T10:50:46.078Z,12.40
2019-02-19T10:53:13.648Z,30.97
2019-02-19T10:55:41.232Z,18.10
2019-02-19T10:58:08.810Z,37.63
2019-02-19T11:00:36.380Z,17.90
2019-02-19T11:03:06.151Z,10.40
2019-02-19T11:05:35.644Z,13.73
2019-02-19T11:08:03.223Z,15.80
2019-02-19T11:10:31.720Z,14.70
2019-02-19T11:12:59.297Z,13.80
2019-02-19T11:15:26.872Z,14.07
2019-02-19T11:17:55.210Z,15.70
2019-02-19T11:20:22.776Z,16.10
2019-02-19T11:22:50.351Z,13.13
2019-02-19T11:25:17.920Z,15.80
2019-02-19T11:27:46.260Z,15.43
2019-02-19T11:30:17.443Z,17.52
2019-02-19T11:32:46.052Z,19.70
2019-02-19T11:35:13.629Z,16.13
2019-02-19T11:37:41.203Z,10.90
2019-02-19T11:40:08.776Z,14.10
2019-02-19T11:42:36.352Z,12.13
2019-02-19T11:45:03.925Z,10.47
2019-02-19T11:47:32.424Z,13.20
2019-02-19T11:49:59.991Z,13.30
2019-02-19T11:52:29.483Z,12.03
2019-02-19T11:54:57.248Z,17.17
2019-02-19T11:57:24.821Z,18.97
2019-02-19T11:59:52.394Z,19.20
2019-02-19T12:02:19.964Z,10.87
2019-02-19T12:04:47.533Z,15.27
2019-02-19T12:07:15.105Z,11.50
2019-02-19T12:09:43.453Z,14.87
2019-02-19T12:12:11.027Z,8.90
2019-02-19T12:14:38.608Z,16.50
2019-02-19T12:17:06.182Z,14.97
2019-02-19T12:19:33.760Z,18.63
2019-02-19T12:22:01.332Z,13.07
2019-02-19T12:24:28.902Z,16.13
2019-02-19T12:26:56.471Z,16.43
2019-02-19T12:29:24.036Z,16.10
2019-02-19T12:31:52.368Z,14.67
2019-02-19T12:34:19.935Z,18.87
2019-02-19T12:36:47.510Z,12.67
2019-02-19T12:39:15.853Z,14.47
2019-02-19T12:41:43.421Z,18.33
2019-02-19T12:44:10.985Z,13.17
2019-02-19T12:46:38.560Z,19.40
2019-02-19T12:49:06.128Z,15.73
2019-02-19T12:51:34.481Z,13.53
2019-02-19T12:54:02.057Z,12.97
2019-02-19T12:56:29.632Z,17.47
2019-02-19T12:58:57.208Z,46.53
2019-02-19T13:01:24.781Z,22.70
2019-02-19T13:03:52.352Z,18.87
2019-02-19T13:06:19.941Z,13.20
2019-02-19T13:08:47.508Z,12.93
2019-02-19T13:11:15.085Z,12.03
2019-02-19T13:13:42.665Z,15.83
2019-02-19T13:16:10.243Z,18.20
2019-02-19T13:18:38.735Z,18.30
2019-02-19T13:21:06.317Z,13.70
2019-02-19T13:23:33.884Z,15.33
2019-02-19T13:26:02.212Z,13.57
2019-02-19T13:28:29.776Z,16.50
2019-02-19T13:30:57.351Z,34.23
2019-02-19T13:33:26.840Z,37.83
2019-02-19T13:35:54.572Z,22.30
2019-02-19T13:38:22.140Z,26.33
2019-02-19T13:40:49.708Z,17.03
2019-02-19T13:43:19.211Z,17.83
2019-02-19T13:45:46.783Z,24.57
2019-02-19T13:48:14.360Z,15.67
2019-02-19T13:50:41.938Z,19.67
2019-02-19T13:53:12.151Z,14.70
2019-02-19T13:55:39.721Z,22.47
2019-02-19T13:58:07.300Z,19.17
2019-02-19T14:00:39.325Z,15.83
2019-02-19T14:03:06.901Z,22.37
2019-02-19T14:05:34.469Z,20.80
2019-02-19T14:08:02.054Z,11.60
2019-02-19T14:10:29.634Z,15.53
2019-02-19T14:12:57.452Z,22.60
2019-02-19T14:15:30.508Z,16.70
2019-02-19T14:17:58.071Z,20.70
2019-02-19T14:20:31.429Z,15.63
2019-02-19T14:23:01.945Z,23.97
2019-02-19T14:28:25.648Z,21.47
2019-02-19T14:33:52.031Z,25.50
2019-02-19T14:36:28.787Z,21.90
2019-02-19T14:39:14.124Z,20.07
2019-02-19T14:44:56.805Z,31.33
2019-02-19T14:47:43.168Z,25.63
2019-02-19T14:50:10.742Z,20.57
2019-02-19T14:52:44.800Z,18.33
2019-02-19T14:55:14.220Z,18.30
2019-02-19T14:58:01.566Z,21.80
2019-02-19T15:03:38.429Z,23.40
2019-02-19T15:09:14.187Z,22.57
2019-02-19T15:14:39.937Z,18.53
2019-02-19T15:17:27.321Z,20.13
2019-02-19T15:20:00.452Z,21.83
2019-02-19T15:22:42.909Z,25.80
2019-02-19T15:25:26.109Z,16.83
2019-02-19T15:27:55.205Z,15.43
2019-02-19T15:30:34.484Z,21.77
2019-02-19T15:33:05.783Z,22.30
2019-02-19T15:35:35.181Z,22.87
2019-02-19T15:38:21.568Z,19.53
2019-02-19T15:40:49.241Z,29.57
2019-02-19T15:43:23.166Z,21.77
2019-02-19T15:45:51.660Z,19.50
2019-02-19T15:48:25.883Z,23.03
2019-02-19T15:50:55.821Z,32.23
2019-02-19T15:53:28.081Z,20.33
2019-02-19T15:56:01.377Z,27.20
2019-02-19T15:58:39.807Z,18.83
2019-02-19T16:01:13.920Z,19.70
2019-02-19T16:03:42.137Z,19.30
2019-02-19T16:09:07.069Z,25.67
2019-02-19T16:11:39.152Z,20.45
2019-02-19T16:14:16.609Z,19.70
2019-02-19T16:16:44.633Z,28.77
2019-02-19T16:19:14.123Z,20.83
2019-02-19T16:21:58.448Z,24.80
2019-02-19T16:24:26.832Z,18.53
2019-02-19T16:27:05.081Z,19.53
2019-02-19T16:29:53.193Z,25.73
2019-02-19T16:32:23.648Z,26.40
2019-02-19T16:34:54.851Z,28.87
2019-02-19T16:37:22.428Z,27.83
2019-02-19T16:39:50.927Z,24.33
2019-02-19T16:42:24.192Z,17.83
2019-02-19T16:44:55.591Z,22.33
2019-02-19T16:47:28.876Z,21.47
2019-02-19T16:50:17.256Z,20.57
2019-02-19T16:52:44.836Z,21.17
2019-02-19T16:55:12.795Z,26.55
2019-02-19T16:57:43.892Z,26.63
2019-02-19T17:00:12.380Z,27.20
2019-02-19T17:02:55.720Z,24.10
2019-02-19T17:05:27.064Z,29.27
2019-02-19T17:07:57.338Z,25.53
2019-02-19T17:10:25.864Z,29.33
2019-02-19T17:12:55.361Z,22.70
2019-02-19T17:15:25.913Z,19.70
2019-02-19T17:17:58.968Z,21.10
2019-02-19T17:20:29.496Z,23.80
2019-02-19T17:22:56.683Z,25.33
2019-02-19T17:25:27.672Z,27.87
2019-02-19T17:27:55.248Z,31.23
2019-02-19T17:30:24.592Z,21.23
2019-02-19T17:32:57.856Z,26.20
2019-02-19T17:35:31.120Z,25.40
2019-02-19T17:38:14.886Z,20.83
2019-02-19T17:40:42.140Z,29.10
2019-02-19T17:43:11.366Z,22.47
2019-02-19T17:45:38.941Z,26.80
2019-02-19T17:48:11.140Z,21.17
2019-02-19T17:50:38.984Z,19.60
2019-02-19T17:53:09.927Z,21.23
2019-02-19T17:58:34.479Z,25.02
2019-02-19T18:01:05.781Z,21.90
2019-02-19T18:03:47.201Z,23.93
2019-02-19T18:06:18.390Z,23.60
2019-02-19T18:08:49.537Z,20.87
2019-02-19T18:11:21.556Z,25.20
2019-02-19T18:13:49.131Z,24.83
2019-02-19T18:16:20.408Z,23.50
2019-02-19T18:18:49.409Z,19.83
2019-02-19T18:21:16.997Z,23.43
2019-02-19T18:23:44.577Z,24.87
2019-02-19T18:26:12.918Z,30.50
2019-02-19T18:28:40.502Z,32.50
2019-02-19T18:31:08.113Z,22.87
2019-02-19T18:33:35.704Z,22.47
2019-02-19T18:36:03.276Z,26.60
2019-02-19T18:38:31.736Z,33.93
2019-02-19T18:40:58.471Z,29.37
2019-02-19T18:43:26.038Z,23.90
2019-02-19T18:45:53.629Z,24.97
2019-02-19T18:48:21.196Z,36.60
2019-02-19T18:50:56.428Z,29.07
2019-02-19T18:53:17.330Z,25.53
2019-02-19T18:55:44.927Z,26.33
2019-02-19T18:58:13.432Z,41.37
2019-02-19T19:00:41.008Z,38.67
2019-02-19T19:03:11.268Z,28.70
2019-02-19T19:05:38.850Z,25.60
2019-02-19T19:08:06.435Z,26.30
2019-02-19T19:10:34.772Z,27.43
2019-02-19T19:13:02.376Z,28.40
2019-02-19T19:15:29.949Z,27.33
2019-02-19T19:17:57.513Z,42.53
2019-02-19T19:20:25.089Z,28.63
2019-02-19T19:22:52.664Z,30.20
2019-02-19T19:25:20.248Z,34.60
2019-02-19T19:27:47.846Z,29.57
2019-02-19T19:30:16.372Z,33.27
2019-02-19T19:32:43.940Z,32.03
2019-02-19T19:35:12.171Z,26.83
2019-02-19T19:37:39.740Z,31.07
2019-02-19T19:40:08.339Z,22.17
2019-02-19T19:42:35.910Z,20.73
2019-02-19T19:45:03.489Z,22.63
2019-02-19T19:47:31.827Z,25.33
2019-02-19T19:49:59.396Z,19.57
2019-02-19T19:52:26.974Z,27.67
2019-02-19T19:54:54.554Z,22.00
2019-02-19T19:57:22.133Z,23.97
2019-02-19T19:59:49.961Z,21.47
2019-02-19T20:02:19.498Z,21.83
2019-02-19T20:04:45.151Z,27.30
2019-02-19T20:07:12.719Z,28.63
2019-02-19T20:09:40.301Z,29.33
2019-02-19T20:12:08.300Z,24.27
2019-02-19T20:14:35.917Z,25.83
2019-02-19T20:17:03.505Z,26.60
2019-02-19T20:19:32.994Z,20.53
2019-02-19T20:22:00.565Z,21.77
2019-02-19T20:24:28.228Z,24.07
2019-02-19T20:26:55.792Z,31.57
2019-02-19T20:29:23.404Z,22.03
2019-02-19T20:31:50.983Z,34.10
2019-02-19T20:34:18.556Z,19.13
2019-02-19T20:36:46.128Z,26.20
2019-02-19T20:39:13.706Z,26.33
2019-02-19T20:41:41.275Z,22.10
2019-02-19T20:44:08.846Z,27.03
2019-02-19T20:46:36.421Z,20.80
2019-02-19T20:49:03.992Z,25.30
2019-02-19T20:51:36.397Z,25.53
2019-02-19T20:53:59.223Z,30.67
2019-02-19T20:56:28.720Z,22.80
2019-02-19T20:58:56.293Z,24.53
2019-02-19T21:01:25.786Z,26.33
2019-02-19T21:03:53.350Z,27.10
2019-02-19T21:06:20.923Z,20.83
2019-02-19T21:08:48.488Z,23.90
2019-02-19T21:11:16.053Z,24.50
2019-02-19T21:13:43.629Z,23.43
2019-02-19T21:16:11.196Z,23.23
2019-02-19T21:18:38.764Z,18.53
2019-02-19T21:21:07.097Z,33.80
2019-02-19T21:23:34.661Z,26.40
2019-02-19T21:26:02.260Z,30.40
2019-02-19T21:28:29.828Z,23.97
2019-02-19T21:30:58.384Z,23.80
2019-02-19T21:33:25.949Z,25.10
2019-02-19T21:35:57.848Z,21.60
2019-02-19T21:38:24.247Z,26.53
2019-02-19T21:40:53.540Z,24.77
2019-02-19T21:43:22.868Z,30.73
2019-02-19T21:45:53.692Z,26.70
2019-02-19T21:48:22.488Z,28.73
2019-02-19T21:50:50.060Z,29.07
2019-02-19T21:53:18.448Z,25.97
2019-02-19T21:55:48.008Z,29.00
2019-02-19T21:58:16.457Z,30.03
2019-02-19T22:00:46.090Z,26.77
2019-02-19T22:03:14.491Z,28.43
2019-02-19T22:05:43.481Z,26.27
2019-02-19T22:08:12.018Z,27.27
2019-02-19T22:10:40.129Z,24.53
2019-02-19T22:13:08.170Z,24.40
2019-02-19T22:15:36.096Z,25.67
2019-02-19T22:18:04.137Z,27.67
2019-02-19T22:20:33.900Z,22.70
2019-02-19T22:23:02.808Z,22.47
2019-02-19T22:25:30.918Z,27.83
2019-02-19T22:27:59.673Z,30.57
2019-02-19T22:30:27.721Z,23.50
2019-02-19T22:32:57.448Z,18.00
2019-02-19T22:35:25.724Z,24.03
2019-02-19T22:37:53.751Z,25.37
2019-02-19T22:40:23.280Z,30.90
2019-02-19T22:42:52.184Z,23.53
2019-02-19T22:45:20.732Z,22.77
2019-02-19T22:47:53.506Z,21.87
2019-02-19T22:50:16.132Z,23.70
2019-02-19T22:52:44.172Z,23.23
2019-02-19T22:55:19.240Z,20.97
2019-02-19T22:57:47.375Z,21.30
2019-02-19T23:00:18.209Z,23.03
2019-02-19T23:02:46.261Z,23.80
2019-02-19T23:05:14.076Z,23.70
2019-02-19T23:07:42.832Z,22.53
2019-02-19T23:10:11.532Z,29.73
2019-02-19T23:12:39.537Z,22.97
2019-02-19T23:15:07.241Z,25.63
2019-02-19T23:17:35.435Z,26.07
2019-02-19T23:20:03.006Z,28.53
2019-02-19T23:22:30.581Z,28.80
2019-02-19T23:25:00.204Z,24.10
2019-02-19T23:27:27.682Z,23.03
2019-02-19T23:29:55.251Z,25.23
2019-02-19T23:32:22.828Z,27.07
2019-02-19T23:34:50.398Z,27.90
2019-02-19T23:37:18.910Z,30.90
2019-02-19T23:39:48.212Z,25.37
2019-02-19T23:42:16.544Z,42.93
2019-02-19T23:44:44.116Z,27.03
2019-02-19T23:47:11.688Z,24.83
2019-02-19T23:49:39.255Z,31.50
2019-02-19T23:52:07.587Z,23.00
2019-02-19T23:54:35.154Z,23.37
2019-02-19T23:57:02.734Z,27.83
2019-02-19T23:59:30.301Z,28.37
